EGAC/BHD METAR and TAF weather

Enter ICAO airport designator
Station Type Date Time Source
EGAC METAR 2019/06/26 15:50 UTC NOAA

EGAC 261550Z AUTO 04015KT 9999 NCD 19/13 Q1031


Station Type Date Time Source
EGAC Decoded METAR 2019/06/26 15:50 UTC NOAA

Belfast / Harbour, United Kingdom (EGAC) 54-36N 005-53W 0M
Jun 26, 2019 - 11:50 AM EDT / 2019.06.26 1550 UTC
Wind: from the NE (040 degrees) at 17 MPH (15 KT):0
Visibility: greater than 7 mile(s):0
Temperature: 66 F (19 C)
Dew Point: 55 F (13 C)
Relative Humidity: 68%
Pressure (altimeter): 30.45 in. Hg (1031 hPa)
ob: EGAC 261550Z AUTO 04015KT 9999 NCD 19/13 Q1031
cycle: 16

Station Type Date Time Source
EGAC TAF UTC NOAA

Error!

Example: see airport list